sensor_id;sensor_type;location;lat;lon;timestamp;pressure;altitude;pressure_sealevel;temperature;humidity
64158;BME280;50449;51.528;5.076;2022-08-11T00:01:35;102094.38;;;30.30;27.15
64158;BME280;50449;51.528;5.076;2022-08-11T00:04:03;102092.63;;;30.26;27.49
64158;BME280;50449;51.528;5.076;2022-08-11T00:06:34;102092.47;;;30.22;27.46
64158;BME280;50449;51.528;5.076;2022-08-11T00:09:03;102084.81;;;30.19;27.66
64158;BME280;50449;51.528;5.076;2022-08-11T00:11:37;102081.88;;;30.15;27.25
64158;BME280;50449;51.528;5.076;2022-08-11T00:14:20;102088.16;;;30.12;27.80
64158;BME280;50449;51.528;5.076;2022-08-11T00:16:58;102088.84;;;30.09;27.54
64158;BME280;50449;51.528;5.076;2022-08-11T00:19:27;102087.06;;;30.05;27.86
64158;BME280;50449;51.528;5.076;2022-08-11T00:21:54;102084.16;;;30.01;27.74
64158;BME280;50449;51.528;5.076;2022-08-11T00:24:20;102085.66;;;29.98;27.96
64158;BME280;50449;51.528;5.076;2022-08-11T00:26:51;102088.31;;;29.95;27.88
64158;BME280;50449;51.528;5.076;2022-08-11T00:29:17;102089.81;;;29.92;28.09
64158;BME280;50449;51.528;5.076;2022-08-11T00:31:50;102093.63;;;29.88;27.97
64158;BME280;50449;51.528;5.076;2022-08-11T00:34:20;102088.75;;;29.85;27.67
64158;BME280;50449;51.528;5.076;2022-08-11T00:39:20;102080.94;;;29.78;27.69
64158;BME280;50449;51.528;5.076;2022-08-11T00:44:46;102086.22;;;29.71;27.94
64158;BME280;50449;51.528;5.076;2022-08-11T00:50:27;102098.25;;;29.63;27.95
64158;BME280;50449;51.528;5.076;2022-08-11T01:01:42;102092.16;;;29.48;28.06
64158;BME280;50449;51.528;5.076;2022-08-11T01:10:30;102079.66;;;29.33;28.22
64158;BME280;50449;51.528;5.076;2022-08-11T01:33:18;102084.06;;;29.05;28.38
64158;BME280;50449;51.528;5.076;2022-08-11T01:58:25;102083.59;;;28.73;28.77
64158;BME280;50449;51.528;5.076;2022-08-11T02:03:40;102087.69;;;28.67;28.86
64158;BME280;50449;51.528;5.076;2022-08-11T02:06:38;102088.34;;;28.64;28.94
64158;BME280;50449;51.528;5.076;2022-08-11T02:09:19;102094.59;;;28.61;28.85
64158;BME280;50449;51.528;5.076;2022-08-11T02:11:51;102092.00;;;28.56;29.14
64158;BME280;50449;51.528;5.076;2022-08-11T02:14:38;102095.44;;;28.53;29.04
64158;BME280;50449;51.528;5.076;2022-08-11T02:20:04;102095.13;;;28.45;29.31
64158;BME280;50449;51.528;5.076;2022-08-11T02:23:12;102095.75;;;28.42;29.09
64158;BME280;50449;51.528;5.076;2022-08-11T02:26:04;102090.38;;;28.37;28.97
64158;BME280;50449;51.528;5.076;2022-08-11T02:34:44;102083.22;;;28.27;29.20
64158;BME280;50449;51.528;5.076;2022-08-11T02:37:27;102081.94;;;28.25;29.41
64158;BME280;50449;51.528;5.076;2022-08-11T02:48:02;102077.84;;;28.14;29.41
64158;BME280;50449;51.528;5.076;2022-08-11T02:51:02;102083.59;;;28.09;29.40
64158;BME280;50449;51.528;5.076;2022-08-11T02:56:20;102065.78;;;28.01;29.37
64158;BME280;50449;51.528;5.076;2022-08-11T02:59:05;102073.63;;;27.99;29.38
64158;BME280;50449;51.528;5.076;2022-08-11T03:02:06;102081.00;;;27.95;29.48
64158;BME280;50449;51.528;5.076;2022-08-11T03:04:43;102074.16;;;27.92;29.59
64158;BME280;50449;51.528;5.076;2022-08-11T03:09:54;102081.81;;;27.87;29.43
64158;BME280;50449;51.528;5.076;2022-08-11T03:15:57;102073.97;;;27.80;29.50
64158;BME280;50449;51.528;5.076;2022-08-11T03:19:14;102075.75;;;27.76;29.99
64158;BME280;50449;51.528;5.076;2022-08-11T03:24:50;102082.94;;;27.68;29.53
64158;BME280;50449;51.528;5.076;2022-08-11T03:30:05;102080.34;;;27.63;29.81
64158;BME280;50449;51.528;5.076;2022-08-11T03:32:57;102082.97;;;27.59;30.17
64158;BME280;50449;51.528;5.076;2022-08-11T03:36:07;102074.44;;;27.56;29.90
64158;BME280;50449;51.528;5.076;2022-08-11T03:41:41;102079.66;;;27.49;30.21
64158;BME280;50449;51.528;5.076;2022-08-11T03:49:43;102070.53;;;27.39;30.45
64158;BME280;50449;51.528;5.076;2022-08-11T03:52:33;102071.16;;;27.36;29.95
64158;BME280;50449;51.528;5.076;2022-08-11T03:55:22;102075.41;;;27.34;30.15
64158;BME280;50449;51.528;5.076;2022-08-11T04:12:32;102067.69;;;27.13;30.73
64158;BME280;50449;51.528;5.076;2022-08-11T04:21:38;102071.09;;;27.02;30.53
64158;BME280;50449;51.528;5.076;2022-08-11T04:24:39;102070.91;;;26.98;30.71
64158;BME280;50449;51.528;5.076;2022-08-11T04:30:11;102061.94;;;26.92;30.79
64158;BME280;50449;51.528;5.076;2022-08-11T04:33:02;102068.94;;;26.90;31.01
64158;BME280;50449;51.528;5.076;2022-08-11T04:35:56;102073.50;;;26.86;31.02
64158;BME280;50449;51.528;5.076;2022-08-11T04:42:06;102069.56;;;26.78;30.90
64158;BME280;50449;51.528;5.076;2022-08-11T04:51:14;102069.84;;;26.68;31.07
64158;BME280;50449;51.528;5.076;2022-08-11T04:57:04;102068.66;;;26.60;31.33
64158;BME280;50449;51.528;5.076;2022-08-11T05:00:05;102074.56;;;26.59;30.83
64158;BME280;50449;51.528;5.076;2022-08-11T05:06:27;102070.28;;;26.52;31.41
64158;BME280;50449;51.528;5.076;2022-08-11T05:09:20;102077.22;;;26.50;31.19
64158;BME280;50449;51.528;5.076;2022-08-11T05:12:05;102075.91;;;26.47;31.38
64158;BME280;50449;51.528;5.076;2022-08-11T05:14:39;102075.41;;;26.45;31.27
64158;BME280;50449;51.528;5.076;2022-08-11T05:17:36;102076.88;;;26.43;31.40
64158;BME280;50449;51.528;5.076;2022-08-11T05:20:24;102075.25;;;26.42;31.04
64158;BME280;50449;51.528;5.076;2022-08-11T05:23:09;102076.69;;;26.39;31.51
64158;BME280;50449;51.528;5.076;2022-08-11T05:25:56;102078.97;;;26.37;31.57
64158;BME280;50449;51.528;5.076;2022-08-11T05:28:55;102080.13;;;26.36;31.39
64158;BME280;50449;51.528;5.076;2022-08-11T05:31:45;102082.38;;;26.34;32.02
64158;BME280;50449;51.528;5.076;2022-08-11T05:34:44;102076.34;;;26.32;32.22
64158;BME280;50449;51.528;5.076;2022-08-11T05:39:59;102076.97;;;26.29;32.17
64158;BME280;50449;51.528;5.076;2022-08-11T05:42:49;102071.44;;;26.29;32.01
64158;BME280;50449;51.528;5.076;2022-08-11T05:45:33;102074.50;;;26.27;31.92
64158;BME280;50449;51.528;5.076;2022-08-11T05:48:19;102082.81;;;26.27;32.27
64158;BME280;50449;51.528;5.076;2022-08-11T05:51:05;102083.16;;;26.26;32.52
64158;BME280;50449;51.528;5.076;2022-08-11T05:53:55;102085.09;;;26.25;32.41
64158;BME280;50449;51.528;5.076;2022-08-11T05:56:47;102079.88;;;26.24;32.31
64158;BME280;50449;51.528;5.076;2022-08-11T05:59:16;102082.94;;;26.22;32.47
64158;BME280;50449;51.528;5.076;2022-08-11T06:01:43;102081.34;;;26.21;32.56
64158;BME280;50449;51.528;5.076;2022-08-11T06:04:18;102078.56;;;26.21;32.49
64158;BME280;50449;51.528;5.076;2022-08-11T06:06:59;102079.69;;;26.20;32.32
64158;BME280;50449;51.528;5.076;2022-08-11T06:09:28;102087.47;;;26.18;32.83
64158;BME280;50449;51.528;5.076;2022-08-11T06:11:58;102088.63;;;26.17;32.92
64158;BME280;50449;51.528;5.076;2022-08-11T06:14:24;102087.47;;;26.18;33.13
64158;BME280;50449;51.528;5.076;2022-08-11T06:16:55;102080.00;;;26.19;32.83
64158;BME280;50449;51.528;5.076;2022-08-11T06:19:21;102083.09;;;26.17;33.00
64158;BME280;50449;51.528;5.076;2022-08-11T06:21:48;102078.34;;;26.18;33.19
64158;BME280;50449;51.528;5.076;2022-08-11T06:24:17;102086.66;;;26.18;32.96
64158;BME280;50449;51.528;5.076;2022-08-11T06:26:48;102093.88;;;26.19;33.09
64158;BME280;50449;51.528;5.076;2022-08-11T06:29:14;102088.31;;;26.19;33.35
64158;BME280;50449;51.528;5.076;2022-08-11T06:31:57;102094.38;;;26.21;33.07
64158;BME280;50449;51.528;5.076;2022-08-11T06:34:32;102095.47;;;26.20;33.15
64158;BME280;50449;51.528;5.076;2022-08-11T06:37:15;102096.28;;;26.20;33.34
64158;BME280;50449;51.528;5.076;2022-08-11T06:45:25;102090.16;;;26.23;33.07
64158;BME280;50449;51.528;5.076;2022-08-11T06:47:52;102084.59;;;26.23;33.61
64158;BME280;50449;51.528;5.076;2022-08-11T06:50:19;102089.81;;;26.25;33.71
64158;BME280;50449;51.528;5.076;2022-08-11T06:53:05;102089.50;;;26.26;33.38
64158;BME280;50449;51.528;5.076;2022-08-11T06:55:33;102094.72;;;26.28;33.80
64158;BME280;50449;51.528;5.076;2022-08-11T06:58:20;102097.19;;;26.29;33.29
64158;BME280;50449;51.528;5.076;2022-08-11T07:01:10;102096.53;;;26.32;33.57
64158;BME280;50449;51.528;5.076;2022-08-11T07:03:42;102086.78;;;26.35;33.68
64158;BME280;50449;51.528;5.076;2022-08-11T07:06:32;102081.75;;;26.37;33.74
64158;BME280;50449;51.528;5.076;2022-08-11T07:09:25;102087.78;;;26.39;33.45
64158;BME280;50449;51.528;5.076;2022-08-11T07:15:25;102086.00;;;26.43;33.84
64158;BME280;50449;51.528;5.076;2022-08-11T07:18:11;102079.84;;;26.46;33.30
64158;BME280;50449;51.528;5.076;2022-08-11T07:21:07;102091.41;;;26.48;33.79
64158;BME280;50449;51.528;5.076;2022-08-11T07:23:53;102084.41;;;26.51;33.82
64158;BME280;50449;51.528;5.076;2022-08-11T07:26:40;102084.13;;;26.52;33.92
64158;BME280;50449;51.528;5.076;2022-08-11T07:29:28;102080.22;;;26.53;33.88
64158;BME280;50449;51.528;5.076;2022-08-11T07:31:56;102081.56;;;26.56;33.80
64158;BME280;50449;51.528;5.076;2022-08-11T07:34:35;102092.00;;;26.59;33.97
64158;BME280;50449;51.528;5.076;2022-08-11T07:37:08;102086.94;;;26.61;33.96
64158;BME280;50449;51.528;5.076;2022-08-11T07:39:35;102085.16;;;26.65;33.80
64158;BME280;50449;51.528;5.076;2022-08-11T07:42:06;102092.53;;;26.70;33.96
64158;BME280;50449;51.528;5.076;2022-08-11T07:44:33;102093.53;;;26.74;34.13
64158;BME280;50449;51.528;5.076;2022-08-11T07:47:21;102087.00;;;26.79;33.81
64158;BME280;50449;51.528;5.076;2022-08-11T07:50:07;102088.81;;;26.83;34.06
64158;BME280;50449;51.528;5.076;2022-08-11T07:52:52;102092.59;;;26.87;33.40
64158;BME280;50449;51.528;5.076;2022-08-11T07:55:18;102093.59;;;26.91;33.44
64158;BME280;50449;51.528;5.076;2022-08-11T07:57:46;102089.81;;;26.96;33.33
64158;BME280;50449;51.528;5.076;2022-08-11T08:00:57;102092.94;;;27.03;33.21
64158;BME280;50449;51.528;5.076;2022-08-11T08:03:42;102089.22;;;27.08;33.55
64158;BME280;50449;51.528;5.076;2022-08-11T08:06:28;102082.72;;;27.12;33.23
64158;BME280;50449;51.528;5.076;2022-08-11T08:09:14;102083.09;;;27.19;33.31
64158;BME280;50449;51.528;5.076;2022-08-11T08:12:00;102090.09;;;27.26;32.86
64158;BME280;50449;51.528;5.076;2022-08-11T08:14:45;102091.59;;;27.32;33.29
64158;BME280;50449;51.528;5.076;2022-08-11T08:17:30;102087.50;;;27.38;33.31
64158;BME280;50449;51.528;5.076;2022-08-11T08:20:16;102085.88;;;27.46;32.74
64158;BME280;50449;51.528;5.076;2022-08-11T08:22:45;102093.38;;;27.54;32.84
64158;BME280;50449;51.528;5.076;2022-08-11T08:25:13;102097.66;;;27.60;32.59
64158;BME280;50449;51.528;5.076;2022-08-11T08:27:39;102094.88;;;27.69;32.62
64158;BME280;50449;51.528;5.076;2022-08-11T08:30:08;102095.19;;;27.76;32.82
64158;BME280;50449;51.528;5.076;2022-08-11T08:32:52;102094.41;;;27.84;32.56
64158;BME280;50449;51.528;5.076;2022-08-11T08:35:22;102089.16;;;27.91;32.77
64158;BME280;50449;51.528;5.076;2022-08-11T08:37:49;102087.53;;;27.99;32.56
64158;BME280;50449;51.528;5.076;2022-08-11T08:40:15;102086.22;;;28.05;32.60
64158;BME280;50449;51.528;5.076;2022-08-11T08:42:48;102078.66;;;28.14;32.34
64158;BME280;50449;51.528;5.076;2022-08-11T08:45:16;102081.44;;;28.23;32.17
64158;BME280;50449;51.528;5.076;2022-08-11T08:47:46;102086.16;;;28.31;32.46
64158;BME280;50449;51.528;5.076;2022-08-11T08:50:16;102082.19;;;28.41;32.18
64158;BME280;50449;51.528;5.076;2022-08-11T08:53:00;102081.88;;;28.51;32.27
64158;BME280;50449;51.528;5.076;2022-08-11T08:55:29;102079.88;;;28.60;32.23
64158;BME280;50449;51.528;5.076;2022-08-11T08:57:57;102086.19;;;28.69;31.62
64158;BME280;50449;51.528;5.076;2022-08-11T09:00:36;102081.41;;;28.79;31.10
64158;BME280;50449;51.528;5.076;2022-08-11T09:03:03;102083.00;;;28.88;31.56
64158;BME280;50449;51.528;5.076;2022-08-11T09:05:28;102079.34;;;28.97;31.41
64158;BME280;50449;51.528;5.076;2022-08-11T09:07:54;102081.78;;;29.07;31.06
64158;BME280;50449;51.528;5.076;2022-08-11T09:10:22;102078.59;;;29.17;30.98
64158;BME280;50449;51.528;5.076;2022-08-11T09:12:49;102079.38;;;29.26;30.74
64158;BME280;50449;51.528;5.076;2022-08-11T09:15:15;102083.25;;;29.34;31.05
64158;BME280;50449;51.528;5.076;2022-08-11T09:18:01;102084.47;;;29.45;30.68
64158;BME280;50449;51.528;5.076;2022-08-11T09:20:36;102086.38;;;29.53;30.94
64158;BME280;50449;51.528;5.076;2022-08-11T09:23:06;102078.75;;;29.63;30.70
64158;BME280;50449;51.528;5.076;2022-08-11T09:25:56;102076.38;;;29.73;30.74
64158;BME280;50449;51.528;5.076;2022-08-11T09:28:42;102074.34;;;29.83;30.74
64158;BME280;50449;51.528;5.076;2022-08-11T09:31:09;102069.16;;;29.93;30.72
64158;BME280;50449;51.528;5.076;2022-08-11T09:33:36;102070.22;;;30.01;30.95
64158;BME280;50449;51.528;5.076;2022-08-11T09:36:03;102063.41;;;30.11;30.67
64158;BME280;50449;51.528;5.076;2022-08-11T09:38:50;102066.59;;;30.22;30.38
64158;BME280;50449;51.528;5.076;2022-08-11T09:41:35;102068.13;;;30.31;29.95
64158;BME280;50449;51.528;5.076;2022-08-11T09:44:02;102051.28;;;30.40;30.15
64158;BME280;50449;51.528;5.076;2022-08-11T09:46:47;102053.63;;;30.50;29.63
64158;BME280;50449;51.528;5.076;2022-08-11T09:49:18;102059.06;;;30.59;29.55
64158;BME280;50449;51.528;5.076;2022-08-11T09:51:46;102049.09;;;30.70;29.01
64158;BME280;50449;51.528;5.076;2022-08-11T09:54:14;102043.38;;;30.79;28.95
64158;BME280;50449;51.528;5.076;2022-08-11T09:56:41;102052.50;;;30.88;28.73
64158;BME280;50449;51.528;5.076;2022-08-11T09:59:25;102045.63;;;30.98;28.42
64158;BME280;50449;51.528;5.076;2022-08-11T10:01:57;102042.69;;;31.07;28.15
64158;BME280;50449;51.528;5.076;2022-08-11T10:04:39;102046.16;;;31.16;28.17
64158;BME280;50449;51.528;5.076;2022-08-11T10:07:05;102042.41;;;31.24;28.07
64158;BME280;50449;51.528;5.076;2022-08-11T10:09:45;102037.53;;;31.33;27.33
64158;BME280;50449;51.528;5.076;2022-08-11T10:12:25;102044.63;;;31.43;27.74
64158;BME280;50449;51.528;5.076;2022-08-11T10:14:55;102039.25;;;31.50;27.24
64158;BME280;50449;51.528;5.076;2022-08-11T10:17:42;102037.47;;;31.58;26.92
64158;BME280;50449;51.528;5.076;2022-08-11T10:20:29;102036.84;;;31.64;26.99
64158;BME280;50449;51.528;5.076;2022-08-11T10:22:57;102027.03;;;31.71;26.62
64158;BME280;50449;51.528;5.076;2022-08-11T10:25:42;102032.84;;;31.78;26.99
64158;BME280;50449;51.528;5.076;2022-08-11T10:28:26;102029.41;;;31.84;26.65
64158;BME280;50449;51.528;5.076;2022-08-11T10:30:52;102030.78;;;31.90;26.01
64158;BME280;50449;51.528;5.076;2022-08-11T10:33:37;102024.13;;;31.95;26.13
64158;BME280;50449;51.528;5.076;2022-08-11T10:36:21;102019.91;;;32.01;26.34
64158;BME280;50449;51.528;5.076;2022-08-11T10:38:47;102029.19;;;32.05;26.47
64158;BME280;50449;51.528;5.076;2022-08-11T10:41:15;102027.31;;;32.09;26.54
64158;BME280;50449;51.528;5.076;2022-08-11T10:44:01;102022.25;;;32.15;26.12
64158;BME280;50449;51.528;5.076;2022-08-11T10:46:28;102019.56;;;32.19;26.10
64158;BME280;50449;51.528;5.076;2022-08-11T10:49:13;102018.50;;;32.23;26.17
64158;BME280;50449;51.528;5.076;2022-08-11T10:51:39;102011.78;;;32.28;25.76
64158;BME280;50449;51.528;5.076;2022-08-11T10:54:23;102006.31;;;32.31;26.09
64158;BME280;50449;51.528;5.076;2022-08-11T10:57:08;102014.41;;;32.37;26.04
64158;BME280;50449;51.528;5.076;2022-08-11T10:59:53;102014.88;;;32.39;26.38
64158;BME280;50449;51.528;5.076;2022-08-11T11:02:19;102002.16;;;32.41;26.19
64158;BME280;50449;51.528;5.076;2022-08-11T11:07:29;102003.50;;;32.47;26.42
64158;BME280;50449;51.528;5.076;2022-08-11T11:09:57;102005.59;;;32.50;25.77
64158;BME280;50449;51.528;5.076;2022-08-11T11:12:30;102007.28;;;32.55;25.60
64158;BME280;50449;51.528;5.076;2022-08-11T11:15:20;101997.38;;;32.58;26.24
64158;BME280;50449;51.528;5.076;2022-08-11T11:18:13;102005.41;;;32.59;26.02
64158;BME280;50449;51.528;5.076;2022-08-11T11:20:42;102000.25;;;32.61;26.11
64158;BME280;50449;51.528;5.076;2022-08-11T11:23:12;101990.34;;;32.64;26.17
64158;BME280;50449;51.528;5.076;2022-08-11T11:31:52;101992.91;;;32.72;26.69
64158;BME280;50449;51.528;5.076;2022-08-11T11:37:00;101989.03;;;32.77;26.06
64158;BME280;50449;51.528;5.076;2022-08-11T11:39:28;101998.69;;;32.80;25.50
64158;BME280;50449;51.528;5.076;2022-08-11T11:41:58;101989.94;;;32.81;25.28
64158;BME280;50449;51.528;5.076;2022-08-11T11:44:25;101987.56;;;32.83;25.27
64158;BME280;50449;51.528;5.076;2022-08-11T11:46:52;101985.22;;;32.85;25.40
64158;BME280;50449;51.528;5.076;2022-08-11T11:49:21;101990.91;;;32.89;25.18
64158;BME280;50449;51.528;5.076;2022-08-11T11:51:48;101980.13;;;32.91;24.84
64158;BME280;50449;51.528;5.076;2022-08-11T11:54:22;101983.38;;;32.93;24.59
64158;BME280;50449;51.528;5.076;2022-08-11T11:56:49;101981.81;;;32.95;24.49
64158;BME280;50449;51.528;5.076;2022-08-11T11:59:18;101979.47;;;32.97;24.54
64158;BME280;50449;51.528;5.076;2022-08-11T12:02:03;101971.16;;;33.01;24.89
64158;BME280;50449;51.528;5.076;2022-08-11T12:04:29;101968.03;;;33.03;24.23
64158;BME280;50449;51.528;5.076;2022-08-11T12:06:55;101968.47;;;33.05;24.74
64158;BME280;50449;51.528;5.076;2022-08-11T12:09:42;101965.28;;;33.06;24.66
64158;BME280;50449;51.528;5.076;2022-08-11T12:12:08;101960.13;;;33.08;24.87
64158;BME280;50449;51.528;5.076;2022-08-11T12:14:53;101958.59;;;33.11;24.88
64158;BME280;50449;51.528;5.076;2022-08-11T12:17:20;101953.81;;;33.11;25.07
64158;BME280;50449;51.528;5.076;2022-08-11T12:19:46;101950.63;;;33.13;25.11
64158;BME280;50449;51.528;5.076;2022-08-11T12:22:12;101946.28;;;33.15;24.67
64158;BME280;50449;51.528;5.076;2022-08-11T12:24:56;101943.59;;;33.19;24.72
64158;BME280;50449;51.528;5.076;2022-08-11T12:27:40;101939.66;;;33.24;24.58
64158;BME280;50449;51.528;5.076;2022-08-11T12:30:06;101940.53;;;33.28;24.18
64158;BME280;50449;51.528;5.076;2022-08-11T12:32:36;101944.22;;;33.32;24.25
64158;BME280;50449;51.528;5.076;2022-08-11T12:35:03;101930.72;;;33.37;24.23
64158;BME280;50449;51.528;5.076;2022-08-11T12:37:31;101933.59;;;33.41;24.87
64158;BME280;50449;51.528;5.076;2022-08-11T12:39:59;101928.50;;;33.47;24.64
64158;BME280;50449;51.528;5.076;2022-08-11T12:42:44;101931.81;;;33.52;24.50
64158;BME280;50449;51.528;5.076;2022-08-11T12:45:29;101930.72;;;33.57;24.27
64158;BME280;50449;51.528;5.076;2022-08-11T12:50:49;101921.31;;;33.69;24.26
64158;BME280;50449;51.528;5.076;2022-08-11T12:53:37;101918.63;;;33.76;23.36
64158;BME280;50449;51.528;5.076;2022-08-11T12:56:06;101922.75;;;33.82;23.19
64158;BME280;50449;51.528;5.076;2022-08-11T12:58:51;101920.06;;;33.89;23.83
64158;BME280;50449;51.528;5.076;2022-08-11T13:01:17;101917.38;;;33.96;23.40
64158;BME280;50449;51.528;5.076;2022-08-11T13:04:02;101914.69;;;34.03;24.82
64158;BME280;50449;51.528;5.076;2022-08-11T13:06:46;101913.66;;;34.12;23.60
64158;BME280;50449;51.528;5.076;2022-08-11T13:09:12;101914.16;;;34.17;23.63
64158;BME280;50449;51.528;5.076;2022-08-11T13:11:39;101911.44;;;34.24;23.32
64158;BME280;50449;51.528;5.076;2022-08-11T13:14:27;101913.19;;;34.33;22.88
64158;BME280;50449;51.528;5.076;2022-08-11T13:16:54;101900.44;;;34.39;22.98
64158;BME280;50449;51.528;5.076;2022-08-11T13:20:00;101896.53;;;34.47;22.91
64158;BME280;50449;51.528;5.076;2022-08-11T13:22:27;101888.22;;;34.54;22.54
64158;BME280;50449;51.528;5.076;2022-08-11T13:24:54;101891.16;;;34.61;22.56
64158;BME280;50449;51.528;5.076;2022-08-11T13:27:22;101887.25;;;34.69;22.64
64158;BME280;50449;51.528;5.076;2022-08-11T13:29:48;101882.13;;;34.75;22.86
64158;BME280;50449;51.528;5.076;2022-08-11T13:32:15;101883.81;;;34.83;22.05
64158;BME280;50449;51.528;5.076;2022-08-11T13:34:41;101883.09;;;34.90;21.96
64158;BME280;50449;51.528;5.076;2022-08-11T13:37:12;101886.78;;;34.98;21.85
64158;BME280;50449;51.528;5.076;2022-08-11T13:39:42;101885.69;;;35.06;21.19
64158;BME280;50449;51.528;5.076;2022-08-11T13:42:12;101879.75;;;35.11;21.92
64158;BME280;50449;51.528;5.076;2022-08-11T13:44:38;101890.69;;;35.20;20.76
64158;BME280;50449;51.528;5.076;2022-08-11T13:47:06;101891.13;;;35.25;20.90
64158;BME280;50449;51.528;5.076;2022-08-11T13:49:35;101886.78;;;35.31;21.50
64158;BME280;50449;51.528;5.076;2022-08-11T13:52:02;101881.63;;;35.37;21.77
64158;BME280;50449;51.528;5.076;2022-08-11T13:54:34;101880.91;;;35.44;21.90
64158;BME280;50449;51.528;5.076;2022-08-11T13:57:03;101872.91;;;35.49;21.64
64158;BME280;50449;51.528;5.076;2022-08-11T13:59:29;101872.56;;;35.54;21.71
64158;BME280;50449;51.528;5.076;2022-08-11T14:02:00;101874.66;;;35.61;22.05
64158;BME280;50449;51.528;5.076;2022-08-11T14:04:40;101871.09;;;35.68;21.63
64158;BME280;50449;51.528;5.076;2022-08-11T14:07:09;101875.53;;;35.72;21.36
64158;BME280;50449;51.528;5.076;2022-08-11T14:09:39;101864.75;;;35.78;20.87
64158;BME280;50449;51.528;5.076;2022-08-11T14:12:13;101855.94;;;35.83;20.76
64158;BME280;50449;51.528;5.076;2022-08-11T14:15:09;101860.03;;;35.89;20.37
64158;BME280;50449;51.528;5.076;2022-08-11T14:17:37;101857.66;;;35.95;19.94
64158;BME280;50449;51.528;5.076;2022-08-11T14:20:06;101860.09;;;36.00;19.95
64158;BME280;50449;51.528;5.076;2022-08-11T14:22:33;101847.66;;;36.05;19.86
64158;BME280;50449;51.528;5.076;2022-08-11T14:25:00;101854.16;;;36.09;20.58
64158;BME280;50449;51.528;5.076;2022-08-11T14:27:26;101845.75;;;36.12;19.97
64158;BME280;50449;51.528;5.076;2022-08-11T14:29:56;101853.81;;;36.17;20.10
64158;BME280;50449;51.528;5.076;2022-08-11T14:32:22;101853.44;;;36.23;19.44
64158;BME280;50449;51.528;5.076;2022-08-11T14:34:49;101852.25;;;36.27;20.07
64158;BME280;50449;51.528;5.076;2022-08-11T14:37:20;101847.44;;;36.31;19.26
64158;BME280;50449;51.528;5.076;2022-08-11T14:40:06;101845.47;;;36.35;19.70
64158;BME280;50449;51.528;5.076;2022-08-11T14:42:52;101839.88;;;36.39;19.48
64158;BME280;50449;51.528;5.076;2022-08-11T14:45:38;101839.88;;;36.43;19.38
64158;BME280;50449;51.528;5.076;2022-08-11T14:48:22;101841.88;;;36.46;19.57
64158;BME280;50449;51.528;5.076;2022-08-11T14:50:48;101844.72;;;36.49;19.84
64158;BME280;50449;51.528;5.076;2022-08-11T14:53:13;101845.94;;;36.52;19.63
64158;BME280;50449;51.528;5.076;2022-08-11T14:55:41;101843.13;;;36.55;19.88
64158;BME280;50449;51.528;5.076;2022-08-11T14:58:28;101835.16;;;36.57;19.80
64158;BME280;50449;51.528;5.076;2022-08-11T15:00:59;101833.53;;;36.60;19.79
64158;BME280;50449;51.528;5.076;2022-08-11T15:03:27;101825.09;;;36.64;19.87
64158;BME280;50449;51.528;5.076;2022-08-11T15:05:55;101829.13;;;36.66;19.54
64158;BME280;50449;51.528;5.076;2022-08-11T15:08:24;101829.53;;;36.68;19.57
64158;BME280;50449;51.528;5.076;2022-08-11T15:11:12;101828.34;;;36.69;18.99
64158;BME280;50449;51.528;5.076;2022-08-11T15:13:59;101829.56;;;36.72;19.37
64158;BME280;50449;51.528;5.076;2022-08-11T15:16:26;101820.72;;;36.73;19.47
64158;BME280;50449;51.528;5.076;2022-08-11T15:19:11;101819.13;;;36.76;19.51
64158;BME280;50449;51.528;5.076;2022-08-11T15:21:37;101826.38;;;36.77;18.96
64158;BME280;50449;51.528;5.076;2022-08-11T15:24:21;101827.59;;;36.79;18.93
64158;BME280;50449;51.528;5.076;2022-08-11T15:26:49;101822.34;;;36.81;18.99
64158;BME280;50449;51.528;5.076;2022-08-11T15:29:35;101823.97;;;36.82;19.38
64158;BME280;50449;51.528;5.076;2022-08-11T15:32:21;101814.31;;;36.83;19.30
64158;BME280;50449;51.528;5.076;2022-08-11T15:34:59;101813.13;;;36.85;19.41
64158;BME280;50449;51.528;5.076;2022-08-11T15:37:45;101815.50;;;36.86;18.79
64158;BME280;50449;51.528;5.076;2022-08-11T15:40:36;101814.34;;;36.87;18.79
64158;BME280;50449;51.528;5.076;2022-08-11T15:43:41;101815.94;;;36.88;19.27
64158;BME280;50449;51.528;5.076;2022-08-11T15:46:42;101809.09;;;36.89;20.00
64158;BME280;50449;51.528;5.076;2022-08-11T15:49:14;101813.13;;;36.88;18.77
64158;BME280;50449;51.528;5.076;2022-08-11T15:51:45;101796.22;;;36.88;18.29
64158;BME280;50449;51.528;5.076;2022-08-11T15:54:16;101799.84;;;36.89;18.12
64158;BME280;50449;51.528;5.076;2022-08-11T15:56:45;101799.84;;;36.89;18.44
64158;BME280;50449;51.528;5.076;2022-08-11T15:59:14;101791.38;;;36.89;18.22
64158;BME280;50449;51.528;5.076;2022-08-11T16:02:00;101793.81;;;36.90;18.59
64158;BME280;50449;51.528;5.076;2022-08-11T16:04:46;101793.00;;;36.90;18.54
64158;BME280;50449;51.528;5.076;2022-08-11T16:07:15;101791.38;;;36.89;18.44
64158;BME280;50449;51.528;5.076;2022-08-11T16:09:48;101785.75;;;36.89;18.91
64158;BME280;50449;51.528;5.076;2022-08-11T16:12:20;101785.75;;;36.89;18.47
64158;BME280;50449;51.528;5.076;2022-08-11T16:14:59;101785.75;;;36.89;18.27
64158;BME280;50449;51.528;5.076;2022-08-11T16:17:46;101789.00;;;36.87;18.76
64158;BME280;50449;51.528;5.076;2022-08-11T16:20:15;101779.72;;;36.87;18.81
64158;BME280;50449;51.528;5.076;2022-08-11T16:22:43;101773.28;;;36.86;18.27
64158;BME280;50449;51.528;5.076;2022-08-11T16:25:20;101769.66;;;36.86;18.34
64158;BME280;50449;51.528;5.076;2022-08-11T16:27:58;101779.72;;;36.87;19.11
64158;BME280;50449;51.528;5.076;2022-08-11T16:30:27;101777.31;;;36.85;18.51
64158;BME280;50449;51.528;5.076;2022-08-11T16:32:54;101772.06;;;36.83;19.33
64158;BME280;50449;51.528;5.076;2022-08-11T16:35:24;101776.91;;;36.83;18.86